Ashley, Michigan
Current Conditions -  °F | °C
As of 10:15 PM on Friday 31 Oct 2014 (Local Time) from KAMN Reporting Station
Overcast Overcast  
Wind Chill: 22°   Ceiling: 3200
Heat Index: 33°   Visibility: 10mi
Dew Point: 23°   Wind: 18mph
Humidity: 66%   Direction: 10°N
Pressure: 30.26"   Gusts: 28mph
Location:  43.19°N, 84.47°W
Report Text: KAMN 010215Z AUTO 01016G24KT 10SM OVC032 01/M05 A3026 RMK AO2 T00081050
Loading
Personal Weather Stations






























Interactive Weather Map
Tropical Storm Tracking
New forecast layout! Learn more

10-Day Weather Forecast

Advertisements
Track Severe Weather on mobile